createdAt,value
2023-05-11T00:00:54.047Z,23.60
2023-05-11T00:03:21.309Z,22.53
2023-05-11T00:05:48.738Z,23.77
2023-05-11T00:08:16.988Z,23.20
2023-05-11T00:10:47.424Z,24.33
2023-05-11T00:13:14.719Z,26.13
2023-05-11T00:15:41.901Z,25.60
2023-05-11T00:18:10.338Z,25.00
2023-05-11T00:20:37.415Z,25.23
2023-05-11T00:23:04.554Z,24.57
2023-05-11T00:25:31.581Z,24.20
2023-05-11T00:27:58.636Z,24.57
2023-05-11T00:30:25.689Z,26.37
2023-05-11T00:32:52.889Z,26.00
2023-05-11T00:35:21.530Z,27.87
2023-05-11T00:37:48.568Z,28.27
2023-05-11T00:40:15.757Z,27.07
2023-05-11T00:42:43.164Z,26.13
2023-05-11T00:45:10.387Z,26.47
2023-05-11T00:47:37.703Z,27.30
2023-05-11T00:50:05.409Z,26.30
2023-05-11T00:52:33.899Z,26.47
2023-05-11T00:55:00.968Z,25.90
2023-05-11T00:57:28.015Z,22.33
2023-05-11T00:59:55.049Z,25.10
2023-05-11T01:02:22.214Z,20.27
2023-05-11T01:04:51.301Z,18.13
2023-05-11T01:07:21.482Z,17.60
2023-05-11T01:09:56.090Z,17.87
2023-05-11T01:12:26.212Z,18.73
2023-05-11T01:14:58.532Z,17.77
2023-05-11T01:17:30.883Z,18.67
2023-05-11T01:20:02.122Z,18.27
2023-05-11T01:22:34.681Z,20.17
2023-05-11T01:25:11.238Z,18.77
2023-05-11T01:27:49.156Z,20.80
2023-05-11T01:30:27.197Z,23.23
2023-05-11T01:32:55.200Z,21.40
2023-05-11T01:35:23.965Z,21.80
2023-05-11T01:37:53.236Z,21.63
2023-05-11T01:40:23.063Z,22.37
2023-05-11T01:42:51.050Z,24.97
2023-05-11T01:45:19.557Z,28.30
2023-05-11T01:47:49.780Z,26.80
2023-05-11T01:50:17.622Z,26.07
2023-05-11T01:52:45.774Z,28.43
2023-05-11T01:55:14.278Z,26.17
2023-05-11T01:57:41.344Z,26.03
2023-05-11T02:00:09.222Z,23.33
2023-05-11T02:02:43.490Z,27.80
2023-05-11T02:05:12.743Z,27.47
2023-05-11T02:07:41.755Z,23.70
2023-05-11T02:10:10.304Z,26.20
2023-05-11T02:12:38.823Z,24.03
2023-05-11T02:15:07.177Z,24.23
2023-05-11T02:17:34.791Z,24.77
2023-05-11T02:20:03.103Z,24.70
2023-05-11T02:22:32.838Z,23.77
2023-05-11T02:24:59.977Z,24.77
2023-05-11T02:27:27.423Z,24.77
2023-05-11T02:29:58.447Z,25.20
2023-05-11T02:32:25.917Z,24.97
2023-05-11T02:34:59.182Z,24.80
2023-05-11T02:37:27.131Z,25.53
2023-05-11T02:39:58.583Z,25.80
2023-05-11T02:42:26.988Z,26.40
2023-05-11T02:44:56.811Z,28.70
2023-05-11T02:47:25.493Z,27.80
2023-05-11T02:49:55.697Z,27.73
2023-05-11T02:52:24.509Z,28.80
2023-05-11T02:54:53.355Z,28.17
2023-05-11T02:57:22.026Z,26.60
2023-05-11T02:59:50.190Z,26.77
2023-05-11T03:02:17.590Z,28.90
2023-05-11T03:04:44.799Z,28.77
2023-05-11T03:07:13.348Z,27.23
2023-05-11T03:09:40.432Z,27.37
2023-05-11T03:12:07.736Z,27.63
2023-05-11T03:14:38.359Z,30.10
2023-05-11T03:17:06.888Z,29.10
2023-05-11T03:19:34.236Z,29.70
2023-05-11T03:22:01.534Z,28.80
2023-05-11T03:24:28.866Z,31.10
2023-05-11T03:26:57.228Z,29.23
2023-05-11T03:29:26.205Z,31.43
2023-05-11T03:31:54.842Z,32.00
2023-05-11T03:34:23.202Z,29.47
2023-05-11T03:36:51.196Z,31.33
2023-05-11T03:39:18.724Z,30.60
2023-05-11T03:41:47.263Z,31.80
2023-05-11T03:44:14.588Z,30.60
2023-05-11T03:46:44.290Z,33.60
2023-05-11T03:49:14.664Z,30.67
2023-05-11T03:51:42.659Z,31.37
2023-05-11T03:54:10.071Z,29.63
2023-05-11T03:56:37.340Z,31.80
2023-05-11T03:59:04.374Z,28.43
2023-05-11T04:01:32.127Z,29.63
2023-05-11T04:03:59.328Z,29.50
2023-05-11T04:06:27.794Z,29.33
2023-05-11T04:09:06.599Z,30.10
2023-05-11T04:11:36.579Z,29.53
2023-05-11T04:14:03.663Z,29.73
2023-05-11T04:16:30.805Z,29.80
2023-05-11T04:18:57.931Z,31.27
2023-05-11T04:21:25.033Z,30.57
2023-05-11T04:23:53.572Z,32.10
2023-05-11T04:26:20.660Z,33.37
2023-05-11T04:28:47.767Z,32.90
2023-05-11T04:31:14.955Z,31.47
2023-05-11T04:33:42.135Z,30.83
2023-05-11T04:36:09.435Z,32.60
2023-05-11T04:38:36.648Z,31.77
2023-05-11T04:41:05.736Z,31.27
2023-05-11T04:43:33.119Z,33.87
2023-05-11T04:46:00.250Z,31.00
2023-05-11T04:48:28.484Z,30.50
2023-05-11T04:50:56.164Z,31.30
2023-05-11T04:53:27.864Z,32.37
2023-05-11T04:55:54.917Z,27.70
2023-05-11T04:58:23.465Z,29.00
2023-05-11T05:00:50.712Z,30.23
2023-05-11T05:03:19.073Z,26.73
2023-05-11T05:05:46.420Z,26.17
2023-05-11T05:08:13.575Z,29.30
2023-05-11T05:10:40.687Z,24.77
2023-05-11T05:13:07.730Z,25.77
2023-05-11T05:15:37.071Z,24.27
2023-05-11T05:18:04.412Z,25.50
2023-05-11T05:20:31.878Z,24.57
2023-05-11T05:22:58.977Z,24.50
2023-05-11T05:25:26.067Z,22.40
2023-05-11T05:27:53.240Z,25.47
2023-05-11T05:30:21.191Z,24.10
2023-05-11T05:32:50.574Z,24.17
2023-05-11T05:35:17.700Z,23.47
2023-05-11T05:37:44.847Z,24.33
2023-05-11T05:40:12.138Z,24.40
2023-05-11T05:42:45.077Z,24.37
2023-05-11T05:45:15.414Z,24.60
2023-05-11T05:47:42.979Z,25.70
2023-05-11T05:50:11.813Z,23.60
2023-05-11T05:52:41.195Z,26.30
2023-05-11T05:55:09.115Z,25.73
2023-05-11T05:57:36.286Z,25.07
2023-05-11T06:00:04.616Z,25.40
2023-05-11T06:02:40.092Z,23.43
2023-05-11T06:05:10.164Z,24.60
2023-05-11T06:07:39.184Z,25.60
2023-05-11T06:10:06.684Z,22.67
2023-05-11T06:12:33.941Z,19.20
2023-05-11T06:15:01.989Z,22.00
2023-05-11T06:17:30.270Z,23.37
2023-05-11T06:19:57.493Z,20.40
2023-05-11T06:22:27.869Z,20.17
2023-05-11T06:24:56.340Z,17.77
2023-05-11T06:27:23.382Z,19.27
2023-05-11T06:29:54.865Z,19.70
2023-05-11T06:32:22.555Z,18.33
2023-05-11T06:34:49.678Z,20.73
2023-05-11T06:37:16.940Z,20.07
2023-05-11T06:39:43.975Z,21.80
2023-05-11T06:42:12.422Z,19.10
2023-05-11T06:44:39.486Z,19.00
2023-05-11T06:47:07.450Z,19.80
2023-05-11T06:49:34.598Z,20.67
2023-05-11T06:52:01.800Z,21.43
2023-05-11T06:54:29.139Z,20.60
2023-05-11T06:56:56.217Z,21.10
2023-05-11T06:59:24.639Z,19.53
2023-05-11T07:01:51.702Z,19.60
2023-05-11T07:04:18.821Z,20.37
2023-05-11T07:06:45.959Z,18.30
2023-05-11T07:09:13.047Z,18.27
2023-05-11T07:11:40.223Z,19.30
2023-05-11T07:14:07.469Z,18.00
2023-05-11T07:16:35.986Z,18.03
2023-05-11T07:19:03.194Z,17.70
2023-05-11T07:21:30.358Z,16.90
2023-05-11T07:23:57.430Z,16.27
2023-05-11T07:26:24.540Z,16.27
2023-05-11T07:28:51.640Z,17.40
2023-05-11T07:31:18.698Z,18.77
2023-05-11T07:33:47.147Z,18.20
2023-05-11T07:36:14.318Z,19.30
2023-05-11T07:38:41.382Z,18.63
2023-05-11T07:41:10.141Z,19.40
2023-05-11T07:43:38.800Z,19.93
2023-05-11T07:46:06.154Z,22.07
2023-05-11T07:48:33.265Z,20.30
2023-05-11T07:51:01.828Z,21.00
2023-05-11T07:53:28.953Z,20.40
2023-05-11T07:55:56.003Z,22.47
2023-05-11T07:58:23.104Z,21.43
2023-05-11T08:00:50.206Z,20.80
2023-05-11T08:03:17.335Z,21.43
2023-05-11T08:05:44.479Z,19.47
2023-05-11T08:08:12.942Z,20.37
2023-05-11T08:10:40.011Z,18.10
2023-05-11T08:13:07.144Z,19.93
2023-05-11T08:15:34.457Z,22.20
2023-05-11T08:18:01.606Z,21.57
2023-05-11T08:20:28.812Z,20.40
2023-05-11T08:22:55.949Z,19.53
2023-05-11T08:25:24.320Z,22.10
2023-05-11T08:27:51.448Z,19.07
2023-05-11T08:30:18.757Z,18.07
2023-05-11T08:32:58.020Z,22.53
2023-05-11T08:35:25.561Z,19.50
2023-05-11T08:37:52.841Z,19.00
2023-05-11T08:40:20.787Z,18.20
2023-05-11T08:42:50.110Z,16.87
2023-05-11T08:45:18.131Z,16.47
2023-05-11T08:47:45.920Z,19.33
2023-05-11T08:50:13.344Z,18.17
2023-05-11T08:52:40.856Z,17.97
2023-05-11T08:55:08.525Z,17.83
2023-05-11T08:57:35.813Z,17.43
2023-05-11T09:00:04.492Z,17.57
2023-05-11T09:02:32.206Z,17.90
2023-05-11T09:04:59.675Z,18.50
2023-05-11T09:07:27.344Z,16.90
2023-05-11T09:09:55.633Z,19.90
2023-05-11T09:12:23.185Z,19.03
2023-05-11T09:14:50.264Z,18.00
2023-05-11T09:17:18.832Z,18.30
2023-05-11T09:19:57.796Z,18.63
2023-05-11T09:22:24.862Z,18.20
2023-05-11T09:24:51.948Z,18.03
2023-05-11T09:27:21.213Z,15.73
2023-05-11T09:29:51.839Z,16.57
2023-05-11T09:32:20.763Z,15.50
2023-05-11T09:34:47.906Z,16.57
2023-05-11T09:37:19.179Z,16.40
2023-05-11T09:40:13.937Z,15.70
2023-05-11T09:42:33.397Z,14.87
2023-05-11T09:45:00.509Z,16.97
2023-05-11T09:47:39.226Z,14.87
2023-05-11T09:50:16.339Z,16.43
2023-05-11T09:52:50.549Z,15.57
2023-05-11T09:55:17.960Z,17.43
2023-05-11T09:57:53.318Z,15.93
2023-05-11T10:00:20.528Z,14.00
2023-05-11T10:02:59.325Z,14.13
2023-05-11T10:05:26.634Z,13.60
2023-05-11T10:07:57.451Z,14.60
2023-05-11T10:10:24.769Z,14.70
2023-05-11T10:12:52.042Z,13.67
2023-05-11T10:15:20.329Z,11.90
2023-05-11T10:17:49.218Z,11.77
2023-05-11T10:20:16.483Z,13.47
2023-05-11T10:22:43.660Z,13.07
2023-05-11T10:25:11.220Z,11.73
2023-05-11T10:27:38.505Z,12.63
2023-05-11T10:30:06.273Z,12.27
2023-05-11T10:32:36.582Z,12.27
2023-05-11T10:35:05.573Z,13.50
2023-05-11T10:37:32.832Z,14.77
2023-05-11T10:40:00.181Z,12.93
2023-05-11T10:42:36.462Z,13.90
2023-05-11T10:45:21.326Z,16.03
2023-05-11T10:48:07.174Z,14.33
2023-05-11T10:50:46.120Z,16.23
2023-05-11T10:53:24.293Z,17.13
2023-05-11T10:56:01.007Z,18.40
2023-05-11T10:58:35.204Z,15.03
2023-05-11T11:01:35.616Z,13.67
2023-05-11T11:04:03.716Z,14.27
2023-05-11T11:06:32.450Z,14.23
2023-05-11T11:09:00.325Z,14.00
2023-05-11T11:11:34.604Z,14.80
2023-05-11T11:14:02.392Z,14.03
2023-05-11T11:16:29.763Z,15.27
2023-05-11T11:19:15.369Z,16.10
2023-05-11T11:21:43.796Z,17.60
2023-05-11T11:24:30.869Z,15.70
2023-05-11T11:26:57.968Z,16.10
2023-05-11T11:29:24.983Z,15.77
2023-05-11T11:31:52.131Z,17.10
2023-05-11T11:34:35.365Z,16.83
2023-05-11T11:37:07.173Z,17.53
2023-05-11T11:39:47.007Z,16.47
2023-05-11T11:42:14.874Z,15.47
2023-05-11T11:44:42.807Z,14.73
2023-05-11T11:47:13.641Z,15.60
2023-05-11T11:49:41.257Z,16.00
2023-05-11T11:52:12.865Z,13.53
2023-05-11T11:54:40.436Z,14.00
2023-05-11T11:57:22.419Z,15.03
2023-05-11T11:59:49.608Z,15.43
2023-05-11T12:02:16.944Z,15.53
2023-05-11T12:04:49.787Z,15.10
2023-05-11T12:07:19.462Z,15.60
2023-05-11T12:09:46.854Z,14.60
2023-05-11T12:12:13.974Z,13.50
2023-05-11T12:14:41.027Z,14.47
2023-05-11T12:17:08.790Z,15.47
2023-05-11T12:19:35.886Z,13.57
2023-05-11T12:22:03.084Z,12.90
2023-05-11T12:24:31.529Z,14.83
2023-05-11T12:26:58.811Z,14.60
2023-05-11T12:29:25.938Z,15.03
2023-05-11T12:31:53.120Z,14.53
2023-05-11T12:34:21.107Z,14.50
2023-05-11T12:36:48.956Z,15.20
2023-05-11T12:39:17.766Z,14.20
2023-05-11T12:41:47.340Z,14.77
2023-05-11T12:44:15.332Z,14.70
2023-05-11T12:46:42.501Z,13.63
2023-05-11T12:49:10.108Z,15.83
2023-05-11T12:51:45.121Z,16.23
2023-05-11T12:54:12.227Z,15.80
2023-05-11T12:56:46.933Z,17.50
2023-05-11T12:59:31.001Z,15.00
2023-05-11T13:02:12.456Z,15.93
2023-05-11T13:04:40.351Z,17.30
2023-05-11T13:07:07.532Z,14.83
2023-05-11T13:09:34.805Z,15.70
2023-05-11T13:12:10.521Z,15.60
2023-05-11T13:14:37.684Z,15.20
2023-05-11T13:17:05.060Z,15.47
2023-05-11T13:19:32.340Z,16.73
2023-05-11T13:21:59.631Z,16.90
2023-05-11T13:24:27.163Z,15.60
2023-05-11T13:26:54.513Z,16.30
2023-05-11T13:29:23.075Z,15.10
2023-05-11T13:31:51.144Z,17.40
2023-05-11T13:34:18.550Z,15.73
2023-05-11T13:36:46.074Z,15.77
2023-05-11T13:39:13.286Z,14.97
2023-05-11T13:41:40.342Z,15.20
2023-05-11T13:44:07.440Z,14.40
2023-05-11T13:46:35.960Z,15.50
2023-05-11T13:49:03.093Z,13.73
2023-05-11T13:51:30.178Z,15.73
2023-05-11T13:53:57.311Z,15.80
2023-05-11T13:56:24.353Z,15.50
2023-05-11T13:58:51.388Z,14.73
2023-05-11T14:01:18.501Z,16.33
2023-05-11T14:03:51.758Z,16.20
2023-05-11T14:06:18.912Z,16.70
2023-05-11T14:08:46.013Z,19.10
2023-05-11T14:11:13.097Z,19.10
2023-05-11T14:13:40.165Z,16.53
2023-05-11T14:16:07.576Z,16.20
2023-05-11T14:18:34.751Z,17.07
2023-05-11T14:21:03.210Z,18.30
2023-05-11T14:23:30.225Z,18.23
2023-05-11T14:25:57.358Z,18.93
2023-05-11T14:28:24.522Z,18.67
2023-05-11T14:30:51.701Z,15.47
2023-05-11T14:33:18.800Z,17.47
2023-05-11T14:35:45.868Z,17.30
2023-05-11T14:38:14.256Z,17.30
2023-05-11T14:40:41.273Z,17.17
2023-05-11T14:43:08.342Z,18.77
2023-05-11T14:45:35.386Z,18.17
2023-05-11T14:48:02.658Z,17.97
2023-05-11T14:50:29.821Z,19.60
2023-05-11T14:52:56.874Z,19.57
2023-05-11T14:55:25.338Z,21.77
2023-05-11T14:57:53.192Z,21.87
2023-05-11T15:00:20.601Z,23.73
2023-05-11T15:02:47.937Z,23.67
2023-05-11T15:05:15.212Z,25.80
2023-05-11T15:07:42.346Z,26.30
2023-05-11T15:10:09.537Z,30.00
2023-05-11T15:12:38.026Z,29.40
2023-05-11T15:15:05.561Z,32.80
2023-05-11T15:17:32.686Z,28.67
2023-05-11T15:19:59.753Z,34.93
2023-05-11T15:22:26.849Z,31.23
2023-05-11T15:24:53.917Z,31.10
2023-05-11T15:27:20.989Z,32.00
2023-05-11T15:29:49.420Z,32.03
2023-05-11T15:32:16.537Z,34.47
2023-05-11T15:34:58.090Z,33.97
2023-05-11T15:37:26.024Z,34.60
2023-05-11T15:39:53.044Z,35.90
2023-05-11T15:42:20.137Z,39.57
2023-05-11T15:44:47.245Z,38.07
2023-05-11T15:47:15.671Z,36.97
2023-05-11T15:49:42.748Z,35.97
2023-05-11T15:52:09.806Z,36.77
2023-05-11T15:54:36.834Z,36.80
2023-05-11T15:57:04.127Z,38.10
2023-05-11T15:59:31.228Z,38.20
2023-05-11T16:01:58.310Z,33.60
2023-05-11T16:04:26.797Z,34.57
2023-05-11T16:06:53.924Z,32.50
2023-05-11T16:09:22.041Z,35.00
2023-05-11T16:11:49.384Z,35.27
2023-05-11T16:14:16.493Z,38.83
2023-05-11T16:16:43.629Z,37.27
2023-05-11T16:19:10.809Z,38.03
2023-05-11T16:21:39.417Z,36.67
2023-05-11T16:24:06.966Z,35.83
2023-05-11T16:26:34.136Z,35.13
2023-05-11T16:29:01.236Z,37.50
2023-05-11T16:31:28.372Z,36.60
2023-05-11T16:33:55.461Z,36.87
2023-05-11T16:36:22.508Z,36.40
2023-05-11T16:38:50.903Z,27.90
2023-05-11T16:41:18.003Z,27.10
2023-05-11T16:43:45.136Z,25.47
2023-05-11T16:46:12.565Z,22.07
2023-05-11T16:48:39.947Z,20.50
2023-05-11T16:51:07.073Z,20.37
2023-05-11T16:53:34.181Z,20.47
2023-05-11T16:56:02.658Z,17.90
2023-05-11T16:58:29.736Z,18.73
2023-05-11T17:00:57.807Z,16.60
2023-05-11T17:03:24.932Z,16.93
2023-05-11T17:05:52.209Z,18.60
2023-05-11T17:08:19.286Z,16.80
2023-05-11T17:10:46.362Z,17.40
2023-05-11T17:13:14.821Z,18.53
2023-05-11T17:15:41.885Z,18.13
2023-05-11T17:18:09.045Z,20.10
2023-05-11T17:20:36.166Z,19.30
2023-05-11T17:23:03.416Z,19.63
2023-05-11T17:25:30.495Z,18.73
2023-05-11T17:27:57.685Z,18.77
2023-05-11T17:30:36.399Z,18.87
2023-05-11T17:33:13.390Z,20.07
2023-05-11T17:35:40.707Z,19.07
2023-05-11T17:38:07.781Z,20.20
2023-05-11T17:40:35.106Z,20.83
2023-05-11T17:43:02.181Z,20.90
2023-05-11T17:45:30.628Z,19.70
2023-05-11T17:47:57.728Z,18.20
2023-05-11T17:50:24.851Z,19.23
2023-05-11T17:52:51.898Z,19.30
2023-05-11T17:55:19.194Z,18.63
2023-05-11T17:57:46.455Z,19.07
2023-05-11T18:00:14.004Z,19.33
2023-05-11T18:02:42.492Z,22.57
2023-05-11T18:05:09.950Z,21.60
2023-05-11T18:07:37.044Z,20.73
2023-05-11T18:10:04.388Z,21.93
2023-05-11T18:12:31.496Z,21.23
2023-05-11T18:14:58.567Z,20.80
2023-05-11T18:17:25.783Z,22.03
2023-05-11T18:19:54.207Z,21.70
2023-05-11T18:22:21.251Z,20.17
2023-05-11T18:24:48.277Z,20.27
2023-05-11T18:27:15.362Z,22.90
2023-05-11T18:29:42.393Z,20.07
2023-05-11T18:32:09.435Z,21.37
2023-05-11T18:34:36.553Z,19.53
2023-05-11T18:37:05.060Z,20.70
2023-05-11T18:39:32.113Z,20.80
2023-05-11T18:42:00.211Z,22.40
2023-05-11T18:44:27.561Z,22.13
2023-05-11T18:46:54.711Z,21.93
2023-05-11T18:49:21.852Z,23.00
2023-05-11T18:51:49.150Z,22.63
2023-05-11T18:54:17.580Z,22.80
2023-05-11T18:56:44.664Z,24.47
2023-05-11T18:59:11.673Z,24.37
2023-05-11T19:01:47.532Z,22.73
2023-05-11T19:04:15.396Z,22.73
2023-05-11T19:06:42.433Z,23.40
2023-05-11T19:09:09.517Z,22.80
2023-05-11T19:11:38.068Z,23.83
2023-05-11T19:14:05.297Z,24.03
2023-05-11T19:16:32.557Z,23.67
2023-05-11T19:18:59.728Z,23.77
2023-05-11T19:21:26.916Z,25.80
2023-05-11T19:23:53.937Z,23.00
2023-05-11T19:26:20.990Z,24.77
2023-05-11T19:28:49.399Z,22.83
2023-05-11T19:31:16.421Z,24.17
2023-05-11T19:33:43.493Z,22.53
2023-05-11T19:36:10.602Z,22.67
2023-05-11T19:38:38.262Z,21.80
2023-05-11T19:41:05.389Z,23.80
2023-05-11T19:43:32.486Z,20.80
2023-05-11T19:46:02.764Z,21.57
2023-05-11T19:48:29.860Z,21.30
2023-05-11T19:50:57.000Z,21.73
2023-05-11T19:53:24.229Z,21.10
2023-05-11T19:55:51.341Z,22.50
2023-05-11T19:58:18.447Z,22.67
2023-05-11T20:00:45.560Z,20.10
2023-05-11T20:03:14.031Z,20.93
2023-05-11T20:05:41.147Z,22.87
2023-05-11T20:08:08.254Z,22.40
2023-05-11T20:10:35.897Z,23.90
2023-05-11T20:13:02.996Z,26.60
2023-05-11T20:15:30.043Z,26.00
2023-05-11T20:17:57.188Z,25.53
2023-05-11T20:20:25.846Z,26.17
2023-05-11T20:22:52.928Z,25.00
2023-05-11T20:25:20.024Z,27.33
2023-05-11T20:27:47.164Z,28.10
2023-05-11T20:30:14.521Z,27.00
2023-05-11T20:34:06.803Z,25.20
2023-05-11T20:35:30.355Z,25.27
2023-05-11T20:37:57.444Z,25.67
2023-05-11T20:40:24.521Z,25.10
2023-05-11T20:42:51.561Z,26.93
2023-05-11T20:45:18.619Z,27.10
2023-05-11T20:47:45.676Z,25.80
2023-05-11T20:50:14.548Z,26.13
2023-05-11T20:52:42.931Z,23.30
2023-05-11T20:55:10.042Z,23.83
2023-05-11T20:57:37.169Z,23.13
2023-05-11T21:00:05.171Z,24.80
2023-05-11T21:02:32.526Z,23.47
2023-05-11T21:04:59.717Z,25.73
2023-05-11T21:07:26.805Z,25.87
2023-05-11T21:09:55.324Z,29.07
2023-05-11T21:12:22.363Z,25.00
2023-05-11T21:14:49.452Z,27.73
2023-05-11T21:17:16.777Z,27.23
2023-05-11T21:19:43.973Z,26.30
2023-05-11T21:22:11.002Z,29.27
2023-05-11T21:24:38.013Z,25.53
2023-05-11T21:27:06.622Z,28.17
2023-05-11T21:29:33.750Z,28.70
2023-05-11T21:32:00.784Z,29.47
2023-05-11T21:34:27.855Z,30.00
2023-05-11T21:36:54.951Z,29.33
2023-05-11T21:39:21.989Z,26.80
2023-05-11T21:41:49.003Z,26.60
2023-05-11T21:44:17.464Z,29.80
2023-05-11T21:46:44.593Z,28.93
2023-05-11T21:49:11.685Z,31.07
2023-05-11T21:51:38.757Z,29.03
2023-05-11T21:54:06.122Z,29.60
2023-05-11T21:56:33.233Z,31.53
2023-05-11T21:59:00.274Z,28.00
2023-05-11T22:01:28.750Z,22.40
2023-05-11T22:03:55.973Z,22.43
2023-05-11T22:06:23.068Z,19.90
2023-05-11T22:08:50.125Z,20.70
2023-05-11T22:11:17.168Z,23.97
2023-05-11T22:13:44.256Z,25.17
2023-05-11T22:16:11.359Z,24.87
2023-05-11T22:18:39.775Z,25.47
2023-05-11T22:21:06.870Z,23.17
2023-05-11T22:23:34.689Z,24.90
2023-05-11T22:26:01.802Z,24.43
2023-05-11T22:28:28.864Z,23.07
2023-05-11T22:30:55.936Z,24.40
2023-05-11T22:33:23.002Z,26.47
2023-05-11T22:35:51.361Z,23.27
2023-05-11T22:38:18.428Z,22.47
2023-05-11T22:40:45.516Z,24.20
2023-05-11T22:43:12.611Z,21.50
2023-05-11T22:45:39.784Z,20.03
2023-05-11T22:48:07.235Z,18.07
2023-05-11T22:50:34.443Z,18.80
2023-05-11T22:53:02.865Z,19.17
2023-05-11T22:55:29.914Z,18.40
2023-05-11T22:57:57.057Z,18.67
2023-05-11T23:00:24.155Z,18.13
2023-05-11T23:02:51.300Z,17.50
2023-05-11T23:05:18.390Z,18.20
2023-05-11T23:07:45.427Z,16.23
2023-05-11T23:10:13.941Z,16.37
2023-05-11T23:12:41.073Z,17.83
2023-05-11T23:15:08.544Z,18.70
2023-05-11T23:17:35.742Z,19.30
2023-05-11T23:20:02.953Z,19.60
2023-05-11T23:22:30.014Z,20.47
2023-05-11T23:24:57.107Z,19.80
2023-05-11T23:27:25.469Z,22.33
2023-05-11T23:29:52.496Z,25.17
2023-05-11T23:32:19.550Z,23.27
2023-05-11T23:34:46.573Z,23.30
2023-05-11T23:37:13.649Z,24.63
2023-05-11T23:39:40.722Z,24.03
2023-05-11T23:42:07.786Z,25.00
2023-05-11T23:44:36.301Z,25.00
2023-05-11T23:47:03.492Z,25.67
2023-05-11T23:49:30.576Z,27.53
2023-05-11T23:51:57.650Z,27.43
2023-05-11T23:54:24.740Z,29.60
2023-05-11T23:56:51.878Z,27.30
2023-05-11T23:59:18.954Z,27.23
